METAR AND TAF INFORMATION
METAR FOR PACD
ADDS - METARS form results

(2239 UTC 04 March 2021)
Data provider http://aviationweather.gov/metar/data/
 
METAR text: PACD 042213Z 18011KT 8SM -RA BKN030 OVC040 03/M01 A2940 RMK AO2 P0002 T00331006
Conditions at: PACD (COLD BAY , AK, US) observed 2213 UTC 04 March 2021
Temperature: 3.3°C (38°F)
Dewpoint: -0.6°C (31°F) [RH = 76%]
Pressure (altimeter): 29.40 inches Hg (995.7 mb)
Winds: from the S (180 degrees) at 13 MPH (11 knots; 5.7 m/s)
Visibility: 8 miles (13 km)
Ceiling: 3000 feet AGL
Clouds: broken clouds at 3000 feet AGL
overcast cloud deck at 4000 feet AGL
Weather: -RA  (light rain)

METAR text: PACD 042201Z 19014KT 7SM -RA BKN028 OVC038 03/M01 A2940 RMK AO2 P0001 T00331006
Conditions at: PACD (COLD BAY , AK, US) observed 2201 UTC 04 March 2021
Temperature: 3.3°C (38°F)
Dewpoint: -0.6°C (31°F) [RH = 76%]
Pressure (altimeter): 29.40 inches Hg (995.7 mb)
Winds: from the S (190 degrees) at 16 MPH (14 knots; 7.2 m/s)
Visibility: 7 miles (11 km)
Ceiling: 2800 feet AGL
Clouds: broken clouds at 2800 feet AGL
overcast cloud deck at 3800 feet AGL
Weather: -RA  (light rain)

METAR text: PACD 042153Z 21010G22KT 6SM -RA BKN030 OVC036 03/00 A2940 RMK AO2 PK WND 17032/2104 RAB08E21B36SNE08B21E36 SLP957 P0006 T00280000
Conditions at: PACD (COLD BAY , AK, US) observed 2153 UTC 04 March 2021
Temperature: 2.8°C (37°F)
Dewpoint: 0.0°C (32°F) [RH = 82%]
Pressure (altimeter): 29.40 inches Hg (995.7 mb)
[Sea-level pressure:  995.7 mb]
Winds: from the SSW (210 degrees) at 12 MPH (10 knots; 5.1 m/s)
gusting to 25 MPH (22 knots; 11.3 m/s)
Visibility: 6 miles (10 km)
Ceiling: 3000 feet AGL
Clouds: broken clouds at 3000 feet AGL
overcast cloud deck at 3600 feet AGL
Weather: -RA  (light rain)

Forecast for: PACD (COLD BAY , AK, US)
Text: PACD 041736Z 0418/0518 15035G50KT 2SM -SN BR BKN005 OVC050
Forecast period: 1800 to 2100 UTC 04 March 2021
Forecast type: FROM: standard forecast or significant change
Winds: from the SSE (150 degrees) at 40 MPH (35 knots; 18.0 m/s)
gusting to 57 MPH (50 knots; 25.7 m/s)
Visibility: 2.00 miles (3.22 km)
Ceiling: 500 feet AGL
Clouds: broken clouds at 500 feet AGL
overcast cloud deck at 5000 feet AGL
Weather: -SN BR  (light snow, mist)
Text: FM042100 24020G30KT 4SM -RASN BR OVC010
Forecast period: 2100 UTC 04 March 2021 to 0000 UTC 05 March 2021
Forecast type: FROM: standard forecast or significant change
Winds: from the WSW (240 degrees) at 23 MPH (20 knots; 10.3 m/s)
gusting to 34 MPH (30 knots; 15.4 m/s)
Visibility: 4 miles (6 km)
Ceiling: 1000 feet AGL
Clouds: overcast cloud deck at 1000 feet AGL
Weather: -RA -SN BR  (light rain, light snow, mist)
Text: FM050000 29025G35KT 6SM -SHSN SCT020 BKN035
Forecast period: 0000 to 1800 UTC 05 March 2021
Forecast type: FROM: standard forecast or significant change
Winds: from the WNW (290 degrees) at 29 MPH (25 knots; 12.9 m/s)
gusting to 40 MPH (35 knots; 18.0 m/s)
Visibility: 6 miles (10 km)
Ceiling: 3500 feet AGL
Clouds: scattered clouds at 2000 feet AGL
broken clouds at 3500 feet AGL
Weather: -SHSN  (light snow showers)

 AIRPORT MAP

 RUNWAY INFORMATION
Runway 08 Runway length 4235 ft Runway width 150 ft
Runway elevation 93 ft Runway displaced threshold 0 ft Runway heading 95
Runway 26 Runway length 4235 ft Runway width 150 ft
Runway elevation 96 ft Runway displaced threshold 0 ft Runway heading 275
Runway 14 Runway length 10415 ft Runway width 150 ft
Runway elevation 69 ft Runway displaced threshold 0 ft Runway heading 158
Runway 32 Runway length 10415 ft Runway width 150 ft
Runway elevation 89 ft Runway displaced threshold 0 ft Runway heading 338

 AIRPORT FREQUENCIES
Type ASOS Name ASOS Frequency 135.75 MHZ
Type CNTR Name ANCHORAGE Frequency 118.5 MHZ
Type CTAF Name CTAF Frequency 123.6 MHZ
Type FSS Name RDO Frequency 123.6 MHZ
Type RFSS Name KENAI RDO Frequency 123.6 MHZ

 AIRPORT NEAR NAVIGATION AIDS
Type NDB Name Elfee Frequency 341 KHZ
Type VORTAC Name Cold Bay Frequency 112600 KHZ



Powered by Virtual Airlines Manager [v2.6.2]